Time;durP1;ratioP1;P1;durP2;ratioP2;P2;SDS_P1;SDS_P2;PMS_P1;PMS_P2;Temp;Humidity;BMP_temperature;BMP_pressure;BME280_temperature;BME280_humidity;BME280_pressure;Samples;Min_cycle;Max_cycle;Signal;HPM_P1;HPM_P2
2022/05/29 00:00:23;;;;;;;1.10;0.80;;;25.60;54.10;;;;;;5093070;28;20448;-79
2022/05/29 00:02:49;;;;;;;2.17;1.10;;;25.60;54.10;;;;;;5092813;28;20440;-79
2022/05/29 00:05:16;;;;;;;1.97;1.00;;;25.60;54.10;;;;;;5092718;28;20450;-79
2022/05/29 00:07:49;;;;;;;1.13;0.70;;;25.60;54.10;;;;;;5093019;28;20460;-79
2022/05/29 00:10:17;;;;;;;2.33;0.80;;;25.60;54.10;;;;;;5092601;28;20432;-79
2022/05/29 00:12:44;;;;;;;2.13;0.80;;;25.60;54.10;;;;;;5092941;28;20436;-79
2022/05/29 00:15:13;;;;;;;1.20;0.90;;;25.60;54.10;;;;;;5092631;28;20450;-78
2022/05/29 00:17:40;;;;;;;1.00;0.80;;;25.60;54.10;;;;;;5092944;28;20943;-79
2022/05/29 00:20:08;;;;;;;1.23;0.80;;;25.60;54.10;;;;;;5092868;28;20927;-79
2022/05/29 00:22:35;;;;;;;1.40;1.10;;;25.60;54.10;;;;;;5092829;28;20440;-79
2022/05/29 00:25:05;;;;;;;1.20;0.80;;;25.60;54.10;;;;;;5092660;28;20834;-79
2022/05/29 00:27:32;;;;;;;1.27;1.00;;;25.60;54.10;;;;;;5092971;28;20447;-79
2022/05/29 00:29:58;;;;;;;1.20;0.87;;;25.60;54.00;;;;;;5092672;28;20483;-79
2022/05/29 00:32:27;;;;;;;1.20;0.90;;;25.60;54.10;;;;;;5093962;28;20942;-79
2022/05/29 00:34:54;;;;;;;1.10;0.90;;;25.60;54.70;;;;;;5096537;28;20580;-79
2022/05/29 00:37:21;;;;;;;1.10;0.80;;;25.50;54.00;;;;;;5096101;28;20475;-79
2022/05/29 00:39:51;;;;;;;1.10;0.80;;;25.60;54.10;;;;;;5096476;28;20450;-79
2022/05/29 00:42:21;;;;;;;1.00;0.80;;;25.60;54.10;;;;;;5096274;28;20432;-79
2022/05/29 00:44:47;;;;;;;1.10;0.90;;;25.50;54.00;;;;;;5096709;28;20910;-79
2022/05/29 00:47:16;;;;;;;1.10;0.90;;;25.60;54.10;;;;;;5096213;28;20527;-79
2022/05/29 00:49:47;;;;;;;2.03;1.00;;;25.50;54.00;;;;;;5096018;28;20479;-79
2022/05/29 00:52:18;;;;;;;2.07;0.90;;;25.50;54.00;;;;;;5096091;28;20483;-79
2022/05/29 00:54:53;;;;;;;1.10;0.90;;;25.50;54.00;;;;;;5096004;28;20447;-79
2022/05/29 00:57:25;;;;;;;1.10;0.90;;;25.50;54.00;;;;;;5095898;28;20990;-79
2022/05/29 00:59:54;;;;;;;1.40;1.23;;;25.60;54.10;;;;;;5095937;28;20448;-90
2022/05/29 01:02:20;;;;;;;1.10;0.73;;;25.60;54.00;;;;;;5095289;28;20448;-79
2022/05/29 01:04:49;;;;;;;1.37;0.90;;;25.60;54.00;;;;;;5095896;28;20923;-79
2022/05/29 01:07:19;;;;;;;1.20;0.80;;;25.50;54.00;;;;;;5094668;28;20455;-79
2022/05/29 01:09:49;;;;;;;1.30;0.90;;;25.50;54.00;;;;;;5095661;28;20488;-79
2022/05/29 01:12:30;;;;;;;1.20;0.80;;;25.70;54.20;;;;;;5095350;28;20448;-79
2022/05/29 01:15:05;;;;;;;2.47;0.90;;;25.60;54.10;;;;;;5095729;28;20523;-79
2022/05/29 01:17:39;;;;;;;1.40;1.00;;;25.50;54.10;;;;;;5095359;28;20436;-79
2022/05/29 01:20:25;;;;;;;2.03;1.00;;;25.50;54.00;;;;;;5095322;28;20436;-79
2022/05/29 01:23:14;;;;;;;1.27;1.00;;;25.50;54.00;;;;;;5077393;28;20500;-79
2022/05/29 01:26:16;;;;;;;1.77;1.00;;;25.50;54.10;;;;;;5095401;28;20886;-79
2022/05/29 01:28:52;;;;;;;1.10;0.70;;;25.50;54.00;;;;;;5075964;28;20475;-79
2022/05/29 01:31:40;;;;;;;1.10;0.80;;;25.50;54.10;;;;;;5095292;28;20898;-79
2022/05/29 01:34:22;;;;;;;2.63;0.80;;;25.50;54.10;;;;;;5095294;28;20485;-79
2022/05/29 01:36:57;;;;;;;1.00;0.80;;;25.50;54.10;;;;;;5094919;28;20444;-78
2022/05/29 01:39:28;;;;;;;1.10;0.80;;;25.50;54.10;;;;;;5095081;28;20808;-79
2022/05/29 01:41:57;;;;;;;1.30;0.80;;;25.50;54.10;;;;;;5095064;28;20436;-81
2022/05/29 01:44:30;;;;;;;1.40;0.80;;;25.50;54.10;;;;;;5095184;28;20847;-79
2022/05/29 01:47:03;;;;;;;1.00;0.77;;;25.60;54.10;;;;;;5094787;28;20436;-79
2022/05/29 01:49:35;;;;;;;1.20;0.87;;;25.50;54.10;;;;;;5094955;28;20483;-79
2022/05/29 01:52:06;;;;;;;1.83;0.80;;;25.50;54.10;;;;;;5094964;28;20443;-88
2022/05/29 01:54:38;;;;;;;1.03;0.80;;;25.50;54.10;;;;;;5095026;28;20462;-79
2022/05/29 01:57:08;;;;;;;1.10;0.80;;;25.50;54.10;;;;;;5094920;28;20436;-80
2022/05/29 01:59:41;;;;;;;1.10;0.80;;;25.50;54.10;;;;;;5094698;28;20451;-79
2022/05/29 02:02:12;;;;;;;1.00;0.80;;;25.50;54.10;;;;;;5094207;28;20443;-78
2022/05/29 02:04:42;;;;;;;1.10;0.90;;;25.50;54.10;;;;;;5077096;28;20791;-79
2022/05/29 02:10:04;;;;;;;1.10;0.80;;;25.50;54.10;;;;;;5094615;28;20552;-79
2022/05/29 02:12:32;;;;;;;1.30;0.90;;;25.50;54.10;;;;;;5094535;28;20809;-79
2022/05/29 02:15:05;;;;;;;1.10;0.80;;;25.50;54.10;;;;;;5094489;28;20444;-79
2022/05/29 02:17:39;;;;;;;1.00;0.80;;;25.50;54.10;;;;;;5080997;28;20486;-79
2022/05/29 02:20:11;;;;;;;1.83;1.00;;;25.50;54.10;;;;;;5094387;28;20461;-80
2022/05/29 02:22:40;;;;;;;1.20;0.80;;;25.50;54.10;;;;;;5094282;28;20463;-79
2022/05/29 02:25:11;;;;;;;1.07;0.70;;;25.50;54.10;;;;;;5093898;28;20471;-79
2022/05/29 02:27:44;;;;;;;2.03;1.03;;;25.50;54.10;;;;;;5094067;28;20803;-79
2022/05/29 02:30:12;;;;;;;1.20;0.87;;;25.50;54.10;;;;;;5094360;28;20480;-79
2022/05/29 02:32:52;;;;;;;1.10;0.80;;;25.50;54.10;;;;;;5094121;28;20440;-79
2022/05/29 02:35:26;;;;;;;1.10;0.80;;;25.50;54.10;;;;;;5094232;28;20440;-79
2022/05/29 02:37:56;;;;;;;1.10;0.93;;;25.40;54.00;;;;;;5093742;28;20460;-89
2022/05/29 02:40:32;;;;;;;1.47;0.90;;;25.40;54.10;;;;;;5094280;28;20447;-79
2022/05/29 02:43:07;;;;;;;1.40;1.13;;;25.50;54.10;;;;;;5094233;28;20447;-79
2022/05/29 02:45:43;;;;;;;1.20;0.80;;;25.40;54.00;;;;;;5093951;28;20764;-79
2022/05/29 02:48:19;;;;;;;1.03;0.93;;;25.40;54.10;;;;;;5093577;28;20431;-79
2022/05/29 02:50:53;;;;;;;1.10;0.87;;;25.40;54.10;;;;;;5093875;28;20483;-79
2022/05/29 02:53:20;;;;;;;1.10;0.90;;;25.40;54.10;;;;;;5093521;28;20965;-79
2022/05/29 02:55:47;;;;;;;1.00;0.80;;;25.40;54.10;;;;;;5093510;28;20436;-79
2022/05/29 02:58:19;;;;;;;1.30;0.80;;;25.40;54.00;;;;;;5093420;28;20799;-79
2022/05/29 03:01:00;;;;;;;1.07;0.93;;;25.40;54.10;;;;;;5093271;28;20505;-79
2022/05/29 03:03:34;;;;;;;1.00;0.80;;;25.50;54.10;;;;;;5093731;28;20523;-79
2022/05/29 03:06:12;;;;;;;1.80;1.00;;;25.40;54.10;;;;;;5093532;28;20436;-79
2022/05/29 03:08:52;;;;;;;1.00;0.90;;;25.50;54.10;;;;;;5093249;28;20460;-79
2022/05/29 03:11:33;;;;;;;1.87;1.00;;;25.40;54.10;;;;;;5093625;28;20925;-79
2022/05/29 03:14:05;;;;;;;1.20;1.00;;;25.40;54.10;;;;;;5093687;28;20528;-79
2022/05/29 03:16:43;;;;;;;1.20;0.70;;;25.40;54.10;;;;;;5093568;28;20447;-79
2022/05/29 03:19:25;;;;;;;1.10;0.80;;;25.40;54.10;;;;;;5093251;28;20455;-79
2022/05/29 03:22:01;;;;;;;1.10;0.80;;;25.40;54.10;;;;;;5093596;28;20436;-79
2022/05/29 03:24:39;;;;;;;1.00;0.90;;;25.40;54.10;;;;;;5093353;28;20471;-79
2022/05/29 03:27:12;;;;;;;1.00;0.80;;;25.40;54.10;;;;;;5092838;28;20461;-79
2022/05/29 03:29:43;;;;;;;1.10;0.80;;;25.40;54.10;;;;;;5093386;28;20479;-82
2022/05/29 03:32:12;;;;;;;1.00;0.70;;;25.40;54.10;;;;;;5093351;28;20448;-80
2022/05/29 03:34:39;;;;;;;1.10;0.90;;;25.50;54.20;;;;;;5093350;28;20450;-88
2022/05/29 03:37:06;;;;;;;1.20;0.90;;;25.40;54.10;;;;;;5092808;28;20542;-90
2022/05/29 03:39:33;;;;;;;1.10;0.80;;;25.40;54.10;;;;;;5093350;28;20498;-79
2022/05/29 03:42:00;;;;;;;1.70;0.97;;;25.40;54.10;;;;;;5093058;28;20440;-79
2022/05/29 03:44:27;;;;;;;1.10;1.00;;;25.40;54.10;;;;;;5093149;28;20439;-79
2022/05/29 03:46:53;;;;;;;1.10;0.80;;;25.40;54.10;;;;;;5092974;28;20446;-79
2022/05/29 03:49:23;;;;;;;1.00;0.80;;;25.40;54.10;;;;;;5093161;28;20993;-79
2022/05/29 03:51:50;;;;;;;1.10;0.83;;;25.40;54.20;;;;;;5093501;28;20440;-79
2022/05/29 03:54:17;;;;;;;1.83;1.00;;;25.40;54.20;;;;;;5093120;28;20444;-79
2022/05/29 03:56:44;;;;;;;1.10;0.90;;;25.40;54.10;;;;;;5092946;28;20958;-79
2022/05/29 03:59:11;;;;;;;1.37;0.80;;;25.40;54.20;;;;;;5092046;28;20934;-79
2022/05/29 04:01:39;;;;;;;1.00;0.90;;;25.50;54.30;;;;;;5093105;28;20442;-79
2022/05/29 04:04:06;;;;;;;1.10;0.80;;;25.40;54.20;;;;;;5093199;28;20443;-89
2022/05/29 04:06:36;;;;;;;1.20;0.90;;;25.40;54.20;;;;;;5092937;28;20446;-78
2022/05/29 04:12:07;;;;;;;1.13;1.00;;;25.40;54.30;;;;;;5097059;28;20777;-79
2022/05/29 04:14:36;;;;;;;1.00;0.80;;;25.40;54.20;;;;;;5096859;28;20489;-79
2022/05/29 04:17:03;;;;;;;1.20;0.90;;;25.30;54.80;;;;;;5096306;28;20436;-87
2022/05/29 04:19:30;;;;;;;1.10;0.70;;;25.30;54.30;;;;;;5096934;28;20498;-78
2022/05/29 04:21:59;;;;;;;1.10;0.90;;;25.30;54.30;;;;;;5096870;28;20927;-79
2022/05/29 04:24:25;;;;;;;1.10;0.90;;;25.40;54.30;;;;;;5096609;28;20459;-79
2022/05/29 04:26:52;;;;;;;2.40;0.90;;;25.40;54.30;;;;;;5095964;28;20438;-78
2022/05/29 04:29:20;;;;;;;1.03;0.87;;;25.30;54.50;;;;;;5076296;28;20484;-79
2022/05/29 04:34:31;;;;;;;1.00;0.70;;;25.30;54.30;;;;;;5096673;28;20427;-79
2022/05/29 04:36:59;;;;;;;1.10;0.93;;;25.30;54.40;;;;;;5096094;28;20463;-78
2022/05/29 04:39:27;;;;;;;1.00;0.77;;;25.30;54.40;;;;;;5096475;28;20448;-79
2022/05/29 04:41:54;;;;;;;1.60;0.90;;;25.30;54.40;;;;;;5095960;28;20440;-90
2022/05/29 04:44:20;;;;;;;1.30;1.03;;;25.40;54.40;;;;;;5076122;28;20764;-79
2022/05/29 04:46:47;;;;;;;1.03;0.80;;;25.30;54.30;;;;;;5076180;28;20437;-79
2022/05/29 04:49:14;;;;;;;1.00;0.80;;;25.40;54.40;;;;;;5075815;28;20795;-79
2022/05/29 04:51:41;;;;;;;1.50;0.80;;;25.30;54.40;;;;;;5076086;28;20761;-90
2022/05/29 04:54:09;;;;;;;1.00;0.80;;;25.30;54.40;;;;;;5093123;28;20443;-79
2022/05/29 04:56:36;;;;;;;1.10;0.87;;;25.40;54.40;;;;;;5096214;28;20443;-79
2022/05/29 04:59:02;;;;;;;1.20;0.70;;;25.30;54.40;;;;;;5095961;28;20443;-79
2022/05/29 05:01:29;;;;;;;1.03;0.90;;;25.30;54.40;;;;;;5095514;28;20447;-79
2022/05/29 05:03:56;;;;;;;1.00;0.77;;;25.30;54.40;;;;;;5096378;28;20444;-79
2022/05/29 05:06:23;;;;;;;1.33;1.23;;;25.30;54.40;;;;;;5095875;28;20458;-79
2022/05/29 05:08:49;;;;;;;1.20;1.00;;;25.30;54.50;;;;;;5095758;28;20467;-79
2022/05/29 05:11:18;;;;;;;1.10;0.80;;;25.30;54.50;;;;;;5095249;28;20482;-78
2022/05/29 05:13:44;;;;;;;1.17;0.90;;;25.30;54.50;;;;;;5095797;28;20922;-79
2022/05/29 05:16:11;;;;;;;1.13;0.77;;;25.30;54.40;;;;;;5095529;28;20443;-80
2022/05/29 05:18:38;;;;;;;1.00;0.90;;;25.30;54.50;;;;;;5095246;28;20447;-79
2022/05/29 05:21:06;;;;;;;1.27;1.00;;;25.30;54.50;;;;;;5094839;28;20440;-90
2022/05/29 05:23:34;;;;;;;1.30;0.90;;;25.30;54.50;;;;;;5095536;28;20841;-79
2022/05/29 05:26:01;;;;;;;1.30;0.90;;;25.30;54.50;;;;;;5095409;28;20479;-89
2022/05/29 05:28:29;;;;;;;1.20;1.00;;;25.30;54.50;;;;;;5095561;28;20771;-79
2022/05/29 05:30:56;;;;;;;1.00;0.80;;;25.30;54.50;;;;;;5095283;28;20484;-78
2022/05/29 05:33:22;;;;;;;1.40;0.90;;;25.30;54.60;;;;;;5095509;28;20777;-90
2022/05/29 05:35:49;;;;;;;1.23;0.90;;;25.30;54.50;;;;;;5095652;28;20440;-87
2022/05/29 05:38:16;;;;;;;1.00;0.77;;;25.30;54.60;;;;;;5095223;28;20467;-79
2022/05/29 05:40:43;;;;;;;1.30;1.13;;;25.30;54.60;;;;;;5095116;28;20447;-90
2022/05/29 05:43:10;;;;;;;1.70;1.20;;;25.30;54.60;;;;;;5094997;28;20436;-79
2022/05/29 05:45:40;;;;;;;1.13;1.03;;;25.30;54.60;;;;;;5095133;28;20451;-80
2022/05/29 05:48:07;;;;;;;1.20;1.00;;;25.30;54.60;;;;;;5095437;28;20510;-79
2022/05/29 05:50:34;;;;;;;1.40;0.90;;;25.30;54.60;;;;;;5095105;28;20480;-79
2022/05/29 05:53:01;;;;;;;1.07;0.80;;;25.30;55.30;;;;;;5094739;28;20439;-90
2022/05/29 05:55:28;;;;;;;1.07;0.70;;;25.30;54.60;;;;;;5095233;28;20441;-82
2022/05/29 05:57:55;;;;;;;1.10;0.90;;;25.30;54.60;;;;;;5094940;28;20428;-81
2022/05/29 06:00:23;;;;;;;1.43;0.90;;;25.30;54.60;;;;;;5094895;28;20436;-90
2022/05/29 06:02:51;;;;;;;1.00;0.70;;;25.30;54.60;;;;;;5094242;28;20463;-79
2022/05/29 06:05:17;;;;;;;1.20;0.90;;;25.30;54.60;;;;;;5093897;28;20436;-79
2022/05/29 06:07:44;;;;;;;1.10;0.80;;;25.30;54.70;;;;;;5094913;28;20452;-79
2022/05/29 06:10:12;;;;;;;1.40;0.90;;;25.30;54.70;;;;;;5094116;28;20475;-90
2022/05/29 06:12:39;;;;;;;1.10;0.80;;;25.30;54.70;;;;;;5094601;28;20458;-79
2022/05/29 06:15:07;;;;;;;1.40;0.90;;;25.30;54.70;;;;;;5094855;28;20447;-90
2022/05/29 06:17:33;;;;;;;1.53;0.90;;;25.30;54.70;;;;;;5094713;28;20447;-90
2022/05/29 06:20:02;;;;;;;1.40;0.80;;;25.30;54.70;;;;;;5094144;28;20451;-79
2022/05/29 06:22:29;;;;;;;1.17;0.80;;;25.30;54.70;;;;;;5094536;28;20472;-79
2022/05/29 06:24:55;;;;;;;0.90;0.70;;;25.30;54.70;;;;;;5093952;28;20483;-79
2022/05/29 06:27:22;;;;;;;1.30;0.80;;;25.30;55.30;;;;;;5094321;28;20534;-79
2022/05/29 06:29:49;;;;;;;1.20;0.90;;;25.30;54.70;;;;;;5093174;28;20437;-78
2022/05/29 06:32:16;;;;;;;1.10;0.80;;;25.30;54.70;;;;;;5094199;28;20439;-90
2022/05/29 06:34:43;;;;;;;1.07;0.77;;;25.30;54.70;;;;;;5094356;28;20436;-90
2022/05/29 06:37:11;;;;;;;1.00;0.70;;;25.30;54.80;;;;;;5094225;28;20456;-83
2022/05/29 06:39:38;;;;;;;1.00;0.70;;;25.30;54.70;;;;;;5094050;28;20455;-90
2022/05/29 06:42:06;;;;;;;1.00;0.87;;;25.30;54.80;;;;;;5093662;28;20448;-90
2022/05/29 06:44:33;;;;;;;1.40;0.90;;;25.30;54.80;;;;;;5094406;28;20440;-90
2022/05/29 06:47:03;;;;;;;1.10;0.90;;;25.30;54.80;;;;;;5093970;28;20440;-87
2022/05/29 06:49:31;;;;;;;1.20;0.80;;;25.30;54.80;;;;;;5094136;28;20931;-79
2022/05/29 06:51:58;;;;;;;1.17;1.07;;;25.30;54.80;;;;;;5093046;28;20487;-88
2022/05/29 06:54:26;;;;;;;1.20;0.90;;;25.30;54.80;;;;;;5093759;28;20451;-80
2022/05/29 06:56:53;;;;;;;1.00;0.73;;;25.40;54.90;;;;;;5093535;28;20441;-90
2022/05/29 06:59:20;;;;;;;1.10;0.80;;;25.30;54.90;;;;;;5094014;28;20447;-90
2022/05/29 07:07:18;;;;;;;1.00;0.90;;;25.20;54.80;;;;;;5092846;28;20797;-79
2022/05/29 07:09:46;;;;;;;1.20;0.90;;;25.20;54.80;;;;;;5093590;28;20440;-78
2022/05/29 07:12:16;;;;;;;1.03;0.90;;;25.20;54.90;;;;;;5092480;28;20439;-90
2022/05/29 07:14:46;;;;;;;1.07;0.70;;;25.20;54.80;;;;;;5093712;28;20505;-89
2022/05/29 07:17:13;;;;;;;1.70;0.90;;;25.30;54.90;;;;;;5093706;28;20432;-90
2022/05/29 07:19:42;;;;;;;1.20;0.80;;;25.20;54.90;;;;;;5093388;28;20841;-79
2022/05/29 07:22:09;;;;;;;1.20;0.90;;;25.20;54.90;;;;;;5092963;28;20843;-79
2022/05/29 07:24:37;;;;;;;1.73;1.13;;;25.20;54.90;;;;;;5093117;28;20478;-79
2022/05/29 07:27:05;;;;;;;1.00;0.87;;;25.20;54.90;;;;;;5092948;28;20436;-82
2022/05/29 07:29:32;;;;;;;3.33;1.60;;;25.20;55.00;;;;;;5093357;28;20432;-85
2022/05/29 07:32:00;;;;;;;5.93;2.03;;;25.10;55.50;;;;;;5093402;28;20538;-85
2022/05/29 07:34:27;;;;;;;5.10;1.73;;;24.90;55.70;;;;;;5093343;28;20908;-84
2022/05/29 07:36:55;;;;;;;4.70;1.83;;;24.80;56.60;;;;;;5093299;28;20466;-84
2022/05/29 07:39:22;;;;;;;4.40;1.63;;;24.70;56.20;;;;;;5075607;28;20462;-84
2022/05/29 07:44:36;;;;;;;4.60;1.70;;;24.50;56.70;;;;;;5097862;28;20485;-84
2022/05/29 07:47:03;;;;;;;3.43;2.33;;;24.30;56.50;;;;;;5097630;28;20446;-85
2022/05/29 07:49:29;;;;;;;6.73;1.97;;;24.20;56.90;;;;;;5096499;28;20443;-82
2022/05/29 07:51:56;;;;;;;3.93;1.70;;;24.20;57.30;;;;;;5096850;28;21053;-80
2022/05/29 07:54:25;;;;;;;4.57;1.60;;;24.40;57.10;;;;;;5097677;28;20444;-81
2022/05/29 07:56:52;;;;;;;2.37;1.50;;;24.50;56.80;;;;;;5097246;28;20526;-88
2022/05/29 07:59:19;;;;;;;8.03;1.80;;;24.50;56.50;;;;;;5097047;28;20942;-80
2022/05/29 08:01:47;;;;;;;3.50;1.47;;;24.60;56.40;;;;;;5097164;28;20839;-81
2022/05/29 08:04:15;;;;;;;3.80;1.60;;;24.60;56.40;;;;;;5096934;28;20442;-81
2022/05/29 08:06:42;;;;;;;2.57;1.83;;;24.70;56.50;;;;;;5097039;28;20439;-88
2022/05/29 08:09:09;;;;;;;2.70;1.23;;;24.70;56.40;;;;;;5096811;28;20519;-87
2022/05/29 08:11:36;;;;;;;2.97;1.20;;;24.80;56.30;;;;;;5096968;28;20491;-81
2022/05/29 08:14:04;;;;;;;2.80;1.23;;;24.90;56.30;;;;;;5096944;28;20765;-89
2022/05/29 08:16:31;;;;;;;1.90;1.40;;;25.00;56.30;;;;;;5096768;28;20436;-80
2022/05/29 08:18:59;;;;;;;2.57;1.47;;;25.00;56.10;;;;;;5096118;28;20444;-86
2022/05/29 08:21:25;;;;;;;4.07;1.60;;;25.10;56.10;;;;;;5094717;28;20439;-80
2022/05/29 08:32:05;;;;;;;2.13;1.30;;;25.20;56.00;;;;;;5086247;28;20558;-81
2022/05/29 08:34:33;;;;;;;2.77;1.30;;;25.20;55.90;;;;;;5093770;28;20939;-81
2022/05/29 08:37:00;;;;;;;5.30;1.53;;;25.20;55.90;;;;;;5075399;28;20456;-83
2022/05/29 08:39:27;;;;;;;3.80;1.53;;;25.30;55.90;;;;;;5093154;28;20455;-83
2022/05/29 08:41:56;;;;;;;1.90;1.20;;;25.30;55.80;;;;;;5096069;28;20440;-82
2022/05/29 08:44:28;;;;;;;1.90;1.47;;;25.40;55.80;;;;;;5096603;28;20531;-83
2022/05/29 08:47:00;;;;;;;2.10;1.30;;;25.40;55.80;;;;;;5096481;28;20436;-90
2022/05/29 08:49:38;;;;;;;2.30;1.63;;;25.40;55.80;;;;;;5087743;28;20455;-86
2022/05/29 08:52:30;;;;;;;1.70;1.07;;;25.40;55.70;;;;;;5095848;28;20479;-88
2022/05/29 08:55:09;;;;;;;1.83;1.17;;;25.40;55.70;;;;;;5093516;28;20532;-85
2022/05/29 08:57:52;;;;;;;2.37;1.10;;;25.30;55.60;;;;;;5076036;28;21058;-85
2022/05/29 09:00:31;;;;;;;1.53;1.00;;;25.40;55.60;;;;;;5092980;28;20475;-85
2022/05/29 09:03:11;;;;;;;1.80;1.50;;;25.30;55.50;;;;;;5096150;28;20451;-86
2022/05/29 09:05:44;;;;;;;1.40;1.27;;;25.40;55.50;;;;;;5085246;28;20440;-86
2022/05/29 09:08:28;;;;;;;4.17;1.20;;;25.40;55.50;;;;;;5090295;28;20487;-80
2022/05/29 09:10:57;;;;;;;1.43;1.10;;;25.30;55.60;;;;;;5090393;28;20467;-81
2022/05/29 09:13:27;;;;;;;2.70;1.37;;;25.20;55.80;;;;;;5093091;28;20447;-81
2022/05/29 09:15:59;;;;;;;3.20;1.20;;;25.20;56.20;;;;;;5083014;28;20480;-83
2022/05/29 09:18:31;;;;;;;2.03;1.30;;;25.20;55.80;;;;;;5087776;28;20436;-87
2022/05/29 09:21:04;;;;;;;1.47;1.20;;;25.20;55.90;;;;;;5091139;28;20516;-79
2022/05/29 09:23:35;;;;;;;2.47;1.47;;;25.30;55.90;;;;;;5074346;28;20452;-83
2022/05/29 09:26:06;;;;;;;1.37;1.07;;;25.20;55.90;;;;;;5091013;28;20467;-79
2022/05/29 09:28:36;;;;;;;1.87;1.20;;;25.20;56.00;;;;;;5092401;28;20437;-78
2022/05/29 09:31:07;;;;;;;1.90;1.20;;;25.20;55.90;;;;;;5094019;28;20476;-87
2022/05/29 09:33:35;;;;;;;2.47;1.50;;;25.30;58.00;;;;;;5086025;28;20916;-80
2022/05/29 09:36:10;;;;;;;1.20;0.93;;;25.20;56.10;;;;;;5081655;28;20440;-80
2022/05/29 09:38:42;;;;;;;1.67;0.90;;;25.30;57.50;;;;;;5089908;28;20832;-80
2022/05/29 09:41:14;;;;;;;1.93;0.90;;;25.30;57.00;;;;;;5095128;28;20448;-80
2022/05/29 09:43:41;;;;;;;1.37;1.10;;;25.30;55.90;;;;;;5090586;28;20927;-82
2022/05/29 09:46:20;;;;;;;1.80;1.07;;;25.30;56.20;;;;;;5093330;28;20444;-80
2022/05/29 09:51:44;;;;;;;2.77;1.73;;;25.20;56.50;;;;;;5093711;28;20481;-81
2022/05/29 09:54:20;;;;;;;1.80;1.50;;;25.20;56.80;;;;;;5093861;28;20448;-81
2022/05/29 09:56:47;;;;;;;1.67;1.40;;;25.10;57.90;;;;;;5094275;28;20514;-80
2022/05/29 09:59:19;;;;;;;2.37;1.60;;;25.20;56.60;;;;;;5094602;28;20443;-80
2022/05/29 10:01:46;;;;;;;1.93;1.43;;;25.20;56.00;;;;;;5094755;28;20455;-80
2022/05/29 10:04:16;;;;;;;6.30;1.30;;;25.20;56.10;;;;;;5093978;28;20440;-84
2022/05/29 10:06:46;;;;;;;3.20;1.20;;;25.20;56.50;;;;;;5075082;28;20460;-82
2022/05/29 10:09:17;;;;;;;5.43;1.30;;;25.30;58.30;;;;;;5093914;28;20455;-78
2022/05/29 10:11:46;;;;;;;5.20;1.90;;;25.40;57.00;;;;;;5076069;28;20480;-77
2022/05/29 10:14:36;;;;;;;2.17;1.40;;;25.40;55.90;;;;;;5094207;28;21080;-77
2022/05/29 10:17:11;;;;;;;2.83;1.50;;;25.50;55.80;;;;;;5091594;28;20930;-78
2022/05/29 10:19:40;;;;;;;3.30;1.80;;;25.40;55.80;;;;;;5094575;28;20444;-85
2022/05/29 10:22:14;;;;;;;3.23;1.67;;;25.50;55.80;;;;;;5094566;28;20447;-78
2022/05/29 10:24:41;;;;;;;2.13;1.30;;;25.40;55.70;;;;;;5094269;28;20463;-77
2022/05/29 10:27:25;;;;;;;4.70;1.80;;;25.40;55.80;;;;;;5094566;28;20436;-79
2022/05/29 10:29:57;;;;;;;10.27;5.73;;;25.40;55.80;;;;;;5094362;28;20878;-77
2022/05/29 10:32:27;;;;;;;12.27;4.37;;;25.30;55.90;;;;;;5094160;28;20510;-82
2022/05/29 10:35:19;;;;;;;12.23;2.87;;;25.40;55.90;;;;;;5094393;28;20436;-84
2022/05/29 10:37:48;;;;;;;4.77;3.70;;;25.40;55.80;;;;;;5094103;28;20463;-85
2022/05/29 10:40:25;;;;;;;9.23;4.57;;;25.40;55.90;;;;;;5094020;28;21006;-84
2022/05/29 10:42:54;;;;;;;7.27;4.30;;;25.40;55.90;;;;;;5093788;28;20443;-81
2022/05/29 10:45:24;;;;;;;8.67;4.90;;;25.40;55.90;;;;;;5093853;28;20458;-85
2022/05/29 10:48:09;;;;;;;7.57;4.60;;;25.40;56.50;;;;;;5093782;28;20444;-85
2022/05/29 10:51:00;;;;;;;9.43;6.00;;;25.40;55.90;;;;;;5093900;28;20466;-77
2022/05/29 10:53:42;;;;;;;12.53;6.50;;;25.40;55.90;;;;;;5094157;28;20443;-79
2022/05/29 10:56:19;;;;;;;13.23;5.80;;;25.40;56.00;;;;;;5093183;28;20443;-79
2022/05/29 10:59:03;;;;;;;13.50;7.30;;;25.40;56.00;;;;;;5092473;28;20439;-79
2022/05/29 11:04:49;;;;;;;8.30;5.60;;;25.40;56.00;;;;;;5093120;28;20509;-79
2022/05/29 11:07:28;;;;;;;11.47;6.60;;;25.40;56.00;;;;;;5092407;28;20464;-85
2022/05/29 11:10:21;;;;;;;12.67;7.60;;;25.40;56.10;;;;;;5093425;28;20443;-81
2022/05/29 11:13:02;;;;;;;9.27;5.70;;;25.40;56.40;;;;;;5059303;28;20486;-84
2022/05/29 11:15:37;;;;;;;11.27;5.93;;;25.30;56.40;;;;;;5092465;28;20981;-81
2022/05/29 11:18:39;;;;;;;10.07;5.20;;;25.30;56.50;;;;;;5075033;28;20435;-81
2022/05/29 11:21:17;;;;;;;9.33;4.70;;;25.30;56.40;;;;;;5084904;28;20441;-81
2022/05/29 11:24:23;;;;;;;11.53;6.07;;;25.30;56.60;;;;;;5093004;28;20435;-86
2022/05/29 11:26:58;;;;;;;8.90;5.60;;;25.30;56.90;;;;;;5053012;28;20456;-89
2022/05/29 11:30:01;;;;;;;10.10;5.30;;;25.30;56.80;;;;;;5092988;28;20444;-80
2022/05/29 11:32:46;;;;;;;10.43;5.87;;;25.30;56.60;;;;;;5085930;28;21008;-86
2022/05/29 11:35:27;;;;;;;8.27;5.70;;;25.30;56.50;;;;;;5073355;28;20447;-80
2022/05/29 11:38:23;;;;;;;10.47;5.60;;;25.40;56.60;;;;;;5092159;28;20464;-80
2022/05/29 11:40:55;;;;;;;8.67;4.83;;;25.40;56.60;;;;;;5093242;28;20433;-80
2022/05/29 11:43:27;;;;;;;11.23;5.50;;;25.40;56.60;;;;;;5093230;28;20436;-84
2022/05/29 11:51:40;;;;;;;6.67;4.70;;;25.50;56.70;;;;;;5093125;28;20490;-79
2022/05/29 11:54:12;;;;;;;12.33;4.80;;;25.50;56.80;;;;;;5092981;28;20981;-79
2022/05/29 11:56:44;;;;;;;9.10;4.40;;;25.50;56.70;;;;;;5092670;28;20444;-85
2022/05/29 11:59:21;;;;;;;8.83;4.63;;;25.50;56.70;;;;;;5092833;28;20445;-78
2022/05/29 12:01:52;;;;;;;8.90;4.90;;;25.50;56.70;;;;;;5092729;28;20454;-80
2022/05/29 12:04:28;;;;;;;8.53;5.30;;;25.50;56.60;;;;;;5092965;28;20436;-86
2022/05/29 12:07:05;;;;;;;6.10;4.40;;;25.50;56.60;;;;;;5093087;28;20466;-88
2022/05/29 12:09:36;;;;;;;6.80;4.43;;;25.50;56.60;;;;;;5093126;28;20481;-82
2022/05/29 12:12:11;;;;;;;8.53;4.00;;;25.50;56.80;;;;;;5091992;28;20480;-79
2022/05/29 12:14:42;;;;;;;7.70;4.87;;;25.50;56.80;;;;;;5092219;28;20443;-86
2022/05/29 12:17:14;;;;;;;7.50;3.97;;;25.50;56.70;;;;;;5092783;28;20440;-85
2022/05/29 12:19:44;;;;;;;6.47;3.60;;;25.50;56.90;;;;;;5074209;28;20505;-80
2022/05/29 12:22:15;;;;;;;5.20;3.73;;;25.50;56.70;;;;;;5092733;28;20444;-80
2022/05/29 12:24:44;;;;;;;5.10;3.53;;;25.50;56.70;;;;;;5092724;28;20474;-87
2022/05/29 12:27:14;;;;;;;10.03;4.03;;;25.50;56.70;;;;;;5092900;28;20439;-81
2022/05/29 12:29:48;;;;;;;7.90;4.30;;;25.60;56.80;;;;;;5096237;28;20447;-87
2022/05/29 12:32:20;;;;;;;6.70;3.97;;;25.60;56.70;;;;;;5096654;28;20532;-88
2022/05/29 12:34:52;;;;;;;6.00;3.67;;;25.70;56.80;;;;;;5096774;28;20824;-80
2022/05/29 12:37:51;;;;;;;4.40;2.87;;;25.60;56.70;;;;;;5095871;28;20528;-91
2022/05/29 12:40:46;;;;;;;4.10;2.50;;;25.70;56.60;;;;;;5096374;28;20436;-83
2022/05/29 12:44:00;;;;;;;7.00;2.00;;;25.60;56.60;;;;;;5096448;28;20442;-89
2022/05/29 12:46:41;;;;;;;4.03;2.40;;;25.50;56.60;;;;;;5096626;28;20805;-90
2022/05/29 12:49:45;;;;;;;5.00;2.50;;;25.50;56.60;;;;;;5097391;28;20522;-91
2022/05/29 12:52:17;;;;;;;3.50;2.33;;;25.50;56.50;;;;;;5098319;28;20482;-83
2022/05/29 12:55:33;;;;;;;4.10;2.10;;;25.40;56.50;;;;;;5099951;28;20497;-83
2022/05/29 12:58:32;;;;;;;4.83;2.10;;;25.50;56.50;;;;;;5098933;28;20435;-82
2022/05/29 13:01:24;;;;;;;4.53;2.30;;;25.50;56.50;;;;;;5097527;28;20444;-88
2022/05/29 13:04:19;;;;;;;5.20;2.33;;;25.40;56.60;;;;;;5098096;28;20514;-82
2022/05/29 13:07:26;;;;;;;3.90;1.93;;;25.40;56.60;;;;;;5086362;28;20464;-82
2022/05/29 13:10:16;;;;;;;2.30;2.10;;;25.40;56.60;;;;;;5096169;28;20436;-92
2022/05/29 13:12:50;;;;;;;3.10;2.50;;;25.40;56.70;;;;;;5091193;28;20484;-92
2022/05/29 13:15:28;;;;;;;3.13;2.20;;;25.30;56.80;;;;;;5096490;28;20439;-81
2022/05/29 13:18:13;;;;;;;13.93;2.50;;;25.30;56.80;;;;;;5098998;28;20456;-84
2022/05/29 13:21:13;;;;;;;5.17;3.07;;;25.30;56.80;;;;;;5099053;28;20874;-88
2022/05/29 13:23:43;;;;;;;4.50;2.30;;;25.30;56.80;;;;;;5102030;28;20492;-82
2022/05/29 13:26:20;;;;;;;2.80;1.80;;;25.30;57.00;;;;;;5095813;28;20476;-84
2022/05/29 13:29:34;;;;;;;6.73;2.07;;;25.30;56.90;;;;;;5095943;28;20431;-81
2022/05/29 13:32:21;;;;;;;2.63;1.80;;;25.30;56.90;;;;;;5100991;28;20475;-89
2022/05/29 13:34:50;;;;;;;3.77;2.07;;;25.30;56.90;;;;;;5085782;28;20483;-92
2022/05/29 13:37:38;;;;;;;2.40;1.67;;;25.20;56.90;;;;;;5096524;28;20464;-82
2022/05/29 13:40:32;;;;;;;3.13;2.03;;;25.30;56.80;;;;;;5101596;28;20440;-85
2022/05/29 13:43:36;;;;;;;2.93;1.87;;;25.30;56.70;;;;;;5098143;28;20436;-86
2022/05/29 13:46:22;;;;;;;3.70;1.97;;;25.30;56.60;;;;;;5104217;28;20814;-83
2022/05/29 13:49:03;;;;;;;1.83;1.50;;;25.20;56.50;;;;;;5095975;28;20444;-91
2022/05/29 13:51:35;;;;;;;2.40;2.00;;;25.30;56.50;;;;;;5095428;28;20436;-82